sensor_id;sensor_type;location;lat;lon;timestamp;P1;durP1;ratioP1;P2;durP2;ratioP2
6517;SDS011;3292;48.944;9.240;2023-12-20T00:01:16;9.40;;;8.40;;
6517;SDS011;3292;48.944;9.240;2023-12-20T00:03:43;10.67;;;9.50;;
6517;SDS011;3292;48.944;9.240;2023-12-20T00:06:10;13.40;;;10.53;;
6517;SDS011;3292;48.944;9.240;2023-12-20T00:08:37;11.60;;;10.40;;
6517;SDS011;3292;48.944;9.240;2023-12-20T00:11:04;13.37;;;11.43;;
6517;SDS011;3292;48.944;9.240;2023-12-20T00:13:30;12.83;;;10.77;;
6517;SDS011;3292;48.944;9.240;2023-12-20T00:15:57;12.70;;;10.60;;
6517;SDS011;3292;48.944;9.240;2023-12-20T00:18:25;13.57;;;10.87;;
6517;SDS011;3292;48.944;9.240;2023-12-20T00:20:52;11.47;;;10.27;;
6517;SDS011;3292;48.944;9.240;2023-12-20T00:23:19;11.90;;;10.57;;
6517;SDS011;3292;48.944;9.240;2023-12-20T00:25:46;11.87;;;10.17;;
6517;SDS011;3292;48.944;9.240;2023-12-20T00:28:13;11.33;;;10.13;;
6517;SDS011;3292;48.944;9.240;2023-12-20T00:30:40;11.73;;;10.53;;
6517;SDS011;3292;48.944;9.240;2023-12-20T00:33:06;11.13;;;9.80;;
6517;SDS011;3292;48.944;9.240;2023-12-20T00:35:34;11.27;;;10.07;;
6517;SDS011;3292;48.944;9.240;2023-12-20T00:38:01;11.43;;;9.30;;
6517;SDS011;3292;48.944;9.240;2023-12-20T00:40:30;10.03;;;9.03;;
6517;SDS011;3292;48.944;9.240;2023-12-20T00:42:56;11.90;;;9.90;;
6517;SDS011;3292;48.944;9.240;2023-12-20T00:45:23;11.03;;;9.57;;
6517;SDS011;3292;48.944;9.240;2023-12-20T00:47:50;10.33;;;9.33;;
6517;SDS011;3292;48.944;9.240;2023-12-20T00:50:17;10.60;;;9.50;;
6517;SDS011;3292;48.944;9.240;2023-12-20T00:52:45;10.77;;;9.53;;
6517;SDS011;3292;48.944;9.240;2023-12-20T00:55:12;10.40;;;9.30;;
6517;SDS011;3292;48.944;9.240;2023-12-20T00:57:39;10.80;;;9.70;;
6517;SDS011;3292;48.944;9.240;2023-12-20T01:00:05;11.93;;;9.83;;
6517;SDS011;3292;48.944;9.240;2023-12-20T01:02:34;10.17;;;9.00;;
6517;SDS011;3292;48.944;9.240;2023-12-20T01:05:01;11.57;;;9.33;;
6517;SDS011;3292;48.944;9.240;2023-12-20T01:07:28;11.20;;;10.03;;
6517;SDS011;3292;48.944;9.240;2023-12-20T01:09:56;11.10;;;10.00;;
6517;SDS011;3292;48.944;9.240;2023-12-20T01:12:23;11.00;;;9.90;;
6517;SDS011;3292;48.944;9.240;2023-12-20T01:14:50;10.47;;;9.33;;
6517;SDS011;3292;48.944;9.240;2023-12-20T01:17:16;10.47;;;9.33;;
6517;SDS011;3292;48.944;9.240;2023-12-20T01:19:43;12.43;;;9.87;;
6517;SDS011;3292;48.944;9.240;2023-12-20T01:22:10;11.10;;;10.00;;
6517;SDS011;3292;48.944;9.240;2023-12-20T01:24:37;12.50;;;11.20;;
6517;SDS011;3292;48.944;9.240;2023-12-20T01:27:05;13.03;;;11.50;;
6517;SDS011;3292;48.944;9.240;2023-12-20T01:29:32;12.90;;;11.50;;
6517;SDS011;3292;48.944;9.240;2023-12-20T01:31:58;12.77;;;11.00;;
6517;SDS011;3292;48.944;9.240;2023-12-20T01:34:25;12.63;;;11.30;;
6517;SDS011;3292;48.944;9.240;2023-12-20T01:36:52;12.87;;;11.53;;
6517;SDS011;3292;48.944;9.240;2023-12-20T01:39:19;12.97;;;11.00;;
6517;SDS011;3292;48.944;9.240;2023-12-20T01:41:45;13.37;;;12.00;;
6517;SDS011;3292;48.944;9.240;2023-12-20T01:44:13;13.50;;;12.10;;
6517;SDS011;3292;48.944;9.240;2023-12-20T01:46:40;14.57;;;13.07;;
6517;SDS011;3292;48.944;9.240;2023-12-20T01:49:07;14.13;;;12.63;;
6517;SDS011;3292;48.944;9.240;2023-12-20T01:51:34;14.97;;;12.67;;
6517;SDS011;3292;48.944;9.240;2023-12-20T01:54:02;13.37;;;11.97;;
6517;SDS011;3292;48.944;9.240;2023-12-20T01:56:29;15.67;;;13.40;;
6517;SDS011;3292;48.944;9.240;2023-12-20T01:58:58;13.17;;;11.77;;
6517;SDS011;3292;48.944;9.240;2023-12-20T02:01:27;17.83;;;13.50;;
6517;SDS011;3292;48.944;9.240;2023-12-20T02:03:54;12.57;;;10.30;;
6517;SDS011;3292;48.944;9.240;2023-12-20T02:06:22;9.30;;;8.30;;
6517;SDS011;3292;48.944;9.240;2023-12-20T02:08:50;8.40;;;7.60;;
6517;SDS011;3292;48.944;9.240;2023-12-20T02:11:17;8.60;;;7.80;;
6517;SDS011;3292;48.944;9.240;2023-12-20T02:13:44;9.80;;;8.77;;
6517;SDS011;3292;48.944;9.240;2023-12-20T02:16:11;9.03;;;8.13;;
6517;SDS011;3292;48.944;9.240;2023-12-20T02:18:39;9.20;;;8.20;;
6517;SDS011;3292;48.944;9.240;2023-12-20T02:21:06;8.23;;;7.43;;
6517;SDS011;3292;48.944;9.240;2023-12-20T02:23:34;8.97;;;8.07;;
6517;SDS011;3292;48.944;9.240;2023-12-20T02:26:00;9.20;;;8.30;;
6517;SDS011;3292;48.944;9.240;2023-12-20T02:28:28;8.87;;;7.63;;
6517;SDS011;3292;48.944;9.240;2023-12-20T02:30:55;8.63;;;7.67;;
6517;SDS011;3292;48.944;9.240;2023-12-20T02:33:22;8.27;;;7.43;;
6517;SDS011;3292;48.944;9.240;2023-12-20T02:35:49;8.00;;;7.20;;
6517;SDS011;3292;48.944;9.240;2023-12-20T02:38:17;7.27;;;6.53;;
6517;SDS011;3292;48.944;9.240;2023-12-20T02:40:45;7.03;;;6.33;;
6517;SDS011;3292;48.944;9.240;2023-12-20T02:43:12;6.73;;;5.87;;
6517;SDS011;3292;48.944;9.240;2023-12-20T02:45:39;7.37;;;4.93;;
6517;SDS011;3292;48.944;9.240;2023-12-20T02:48:06;5.37;;;3.83;;
6517;SDS011;3292;48.944;9.240;2023-12-20T02:50:33;4.70;;;3.00;;
6517;SDS011;3292;48.944;9.240;2023-12-20T02:53:00;3.40;;;3.10;;
6517;SDS011;3292;48.944;9.240;2023-12-20T02:55:27;2.73;;;2.53;;
6517;SDS011;3292;48.944;9.240;2023-12-20T02:57:55;2.90;;;2.70;;
6517;SDS011;3292;48.944;9.240;2023-12-20T03:00:22;2.60;;;2.40;;
6517;SDS011;3292;48.944;9.240;2023-12-20T03:02:49;2.47;;;2.27;;
6517;SDS011;3292;48.944;9.240;2023-12-20T03:05:15;2.40;;;2.20;;
6517;SDS011;3292;48.944;9.240;2023-12-20T03:07:42;2.37;;;2.17;;
6517;SDS011;3292;48.944;9.240;2023-12-20T03:10:09;2.80;;;2.60;;
6517;SDS011;3292;48.944;9.240;2023-12-20T03:12:36;2.37;;;2.20;;
6517;SDS011;3292;48.944;9.240;2023-12-20T03:15:04;1.90;;;1.70;;
6517;SDS011;3292;48.944;9.240;2023-12-20T03:17:31;2.20;;;2.00;;
6517;SDS011;3292;48.944;9.240;2023-12-20T03:19:58;2.00;;;1.80;;
6517;SDS011;3292;48.944;9.240;2023-12-20T03:22:25;1.80;;;1.70;;
6517;SDS011;3292;48.944;9.240;2023-12-20T03:24:52;3.03;;;1.70;;
6517;SDS011;3292;48.944;9.240;2023-12-20T03:27:18;2.27;;;1.90;;
6517;SDS011;3292;48.944;9.240;2023-12-20T03:29:45;1.90;;;1.80;;
6517;SDS011;3292;48.944;9.240;2023-12-20T03:32:13;2.27;;;2.00;;
6517;SDS011;3292;48.944;9.240;2023-12-20T03:34:40;2.13;;;2.03;;
6517;SDS011;3292;48.944;9.240;2023-12-20T03:37:07;2.20;;;2.00;;
6517;SDS011;3292;48.944;9.240;2023-12-20T03:39:33;1.77;;;1.67;;
6517;SDS011;3292;48.944;9.240;2023-12-20T03:42:00;1.90;;;1.80;;
6517;SDS011;3292;48.944;9.240;2023-12-20T03:44:27;1.83;;;1.73;;
6517;SDS011;3292;48.944;9.240;2023-12-20T03:46:54;2.40;;;1.80;;
6517;SDS011;3292;48.944;9.240;2023-12-20T03:49:22;1.67;;;1.57;;
6517;SDS011;3292;48.944;9.240;2023-12-20T03:51:48;1.80;;;1.70;;
6517;SDS011;3292;48.944;9.240;2023-12-20T03:54:15;1.90;;;1.80;;
6517;SDS011;3292;48.944;9.240;2023-12-20T03:56:42;2.10;;;1.90;;
6517;SDS011;3292;48.944;9.240;2023-12-20T03:59:09;1.70;;;1.60;;
6517;SDS011;3292;48.944;9.240;2023-12-20T04:01:35;1.70;;;1.60;;
6517;SDS011;3292;48.944;9.240;2023-12-20T04:04:02;1.70;;;1.60;;
6517;SDS011;3292;48.944;9.240;2023-12-20T04:06:31;1.70;;;1.60;;
6517;SDS011;3292;48.944;9.240;2023-12-20T04:08:57;1.73;;;1.63;;
6517;SDS011;3292;48.944;9.240;2023-12-20T04:11:24;1.67;;;1.57;;
6517;SDS011;3292;48.944;9.240;2023-12-20T04:13:51;1.90;;;1.80;;
6517;SDS011;3292;48.944;9.240;2023-12-20T04:16:21;2.10;;;1.93;;
6517;SDS011;3292;48.944;9.240;2023-12-20T04:18:47;1.77;;;1.67;;
6517;SDS011;3292;48.944;9.240;2023-12-20T04:21:14;1.70;;;1.60;;
6517;SDS011;3292;48.944;9.240;2023-12-20T04:23:42;1.70;;;1.60;;
6517;SDS011;3292;48.944;9.240;2023-12-20T04:26:10;1.90;;;1.80;;
6517;SDS011;3292;48.944;9.240;2023-12-20T04:28:36;4.13;;;1.80;;
6517;SDS011;3292;48.944;9.240;2023-12-20T04:31:03;1.97;;;1.60;;
6517;SDS011;3292;48.944;9.240;2023-12-20T04:33:30;1.70;;;1.60;;
6517;SDS011;3292;48.944;9.240;2023-12-20T04:35:57;1.63;;;1.53;;
6517;SDS011;3292;48.944;9.240;2023-12-20T04:38:25;1.90;;;1.80;;
6517;SDS011;3292;48.944;9.240;2023-12-20T04:40:53;1.60;;;1.50;;
6517;SDS011;3292;48.944;9.240;2023-12-20T04:43:19;1.80;;;1.70;;
6517;SDS011;3292;48.944;9.240;2023-12-20T04:45:47;1.83;;;1.70;;
6517;SDS011;3292;48.944;9.240;2023-12-20T04:48:14;1.70;;;1.60;;
6517;SDS011;3292;48.944;9.240;2023-12-20T04:50:40;2.30;;;1.90;;
6517;SDS011;3292;48.944;9.240;2023-12-20T04:53:07;1.70;;;1.60;;
6517;SDS011;3292;48.944;9.240;2023-12-20T04:55:34;1.90;;;1.80;;
6517;SDS011;3292;48.944;9.240;2023-12-20T04:58:03;1.90;;;1.80;;
6517;SDS011;3292;48.944;9.240;2023-12-20T05:00:30;2.07;;;1.77;;
6517;SDS011;3292;48.944;9.240;2023-12-20T05:02:56;1.73;;;1.63;;
6517;SDS011;3292;48.944;9.240;2023-12-20T05:05:23;1.97;;;1.87;;
6517;SDS011;3292;48.944;9.240;2023-12-20T05:07:50;1.90;;;1.80;;
6517;SDS011;3292;48.944;9.240;2023-12-20T05:10:17;2.33;;;2.00;;
6517;SDS011;3292;48.944;9.240;2023-12-20T05:12:44;2.27;;;2.07;;
6517;SDS011;3292;48.944;9.240;2023-12-20T05:15:12;2.20;;;2.10;;
6517;SDS011;3292;48.944;9.240;2023-12-20T05:17:39;2.17;;;2.07;;
6517;SDS011;3292;48.944;9.240;2023-12-20T05:20:06;2.20;;;2.10;;
6517;SDS011;3292;48.944;9.240;2023-12-20T05:22:34;2.67;;;2.43;;
6517;SDS011;3292;48.944;9.240;2023-12-20T05:25:01;2.20;;;2.10;;
6517;SDS011;3292;48.944;9.240;2023-12-20T05:27:28;2.70;;;2.50;;
6517;SDS011;3292;48.944;9.240;2023-12-20T05:29:55;3.23;;;2.43;;
6517;SDS011;3292;48.944;9.240;2023-12-20T05:32:24;2.47;;;2.30;;
6517;SDS011;3292;48.944;9.240;2023-12-20T05:34:51;2.80;;;2.60;;
6517;SDS011;3292;48.944;9.240;2023-12-20T05:37:18;2.80;;;2.60;;
6517;SDS011;3292;48.944;9.240;2023-12-20T05:39:45;3.50;;;3.20;;
6517;SDS011;3292;48.944;9.240;2023-12-20T05:42:12;3.57;;;3.37;;
6517;SDS011;3292;48.944;9.240;2023-12-20T05:44:38;3.40;;;3.20;;
6517;SDS011;3292;48.944;9.240;2023-12-20T05:47:05;3.77;;;3.47;;
6517;SDS011;3292;48.944;9.240;2023-12-20T05:49:33;3.87;;;3.53;;
6517;SDS011;3292;48.944;9.240;2023-12-20T05:52:00;3.70;;;3.40;;
6517;SDS011;3292;48.944;9.240;2023-12-20T05:54:27;4.30;;;3.50;;
6517;SDS011;3292;48.944;9.240;2023-12-20T05:56:54;4.07;;;3.77;;
6517;SDS011;3292;48.944;9.240;2023-12-20T05:59:21;3.73;;;3.37;;
6517;SDS011;3292;48.944;9.240;2023-12-20T06:01:48;4.03;;;3.50;;
6517;SDS011;3292;48.944;9.240;2023-12-20T06:04:14;3.60;;;3.33;;
6517;SDS011;3292;48.944;9.240;2023-12-20T06:06:43;3.70;;;3.40;;
6517;SDS011;3292;48.944;9.240;2023-12-20T06:09:10;3.90;;;3.60;;
6517;SDS011;3292;48.944;9.240;2023-12-20T06:11:37;3.77;;;3.47;;
6517;SDS011;3292;48.944;9.240;2023-12-20T06:14:04;4.03;;;3.73;;
6517;SDS011;3292;48.944;9.240;2023-12-20T06:16:31;3.83;;;3.53;;
6517;SDS011;3292;48.944;9.240;2023-12-20T06:18:58;4.23;;;3.90;;
6517;SDS011;3292;48.944;9.240;2023-12-20T06:21:24;5.77;;;4.23;;
6517;SDS011;3292;48.944;9.240;2023-12-20T06:23:53;4.40;;;4.00;;
6517;SDS011;3292;48.944;9.240;2023-12-20T06:26:20;5.30;;;4.67;;
6517;SDS011;3292;48.944;9.240;2023-12-20T06:28:47;4.50;;;4.13;;
6517;SDS011;3292;48.944;9.240;2023-12-20T06:31:13;3.90;;;3.60;;
6517;SDS011;3292;48.944;9.240;2023-12-20T06:33:40;4.53;;;4.17;;
6517;SDS011;3292;48.944;9.240;2023-12-20T06:36:07;4.57;;;4.17;;
6517;SDS011;3292;48.944;9.240;2023-12-20T06:38:36;4.97;;;4.43;;
6517;SDS011;3292;48.944;9.240;2023-12-20T06:41:05;5.20;;;4.50;;
6517;SDS011;3292;48.944;9.240;2023-12-20T06:43:32;4.90;;;4.50;;
6517;SDS011;3292;48.944;9.240;2023-12-20T06:45:59;5.37;;;4.87;;
6517;SDS011;3292;48.944;9.240;2023-12-20T06:48:26;6.27;;;5.77;;
6517;SDS011;3292;48.944;9.240;2023-12-20T06:50:53;5.80;;;5.20;;
6517;SDS011;3292;48.944;9.240;2023-12-20T06:53:20;6.00;;;5.50;;
6517;SDS011;3292;48.944;9.240;2023-12-20T06:55:47;5.50;;;5.03;;
6517;SDS011;3292;48.944;9.240;2023-12-20T06:58:15;6.27;;;5.70;;
6517;SDS011;3292;48.944;9.240;2023-12-20T07:00:42;6.33;;;5.73;;
6517;SDS011;3292;48.944;9.240;2023-12-20T07:03:08;6.50;;;5.90;;
6517;SDS011;3292;48.944;9.240;2023-12-20T07:05:35;6.93;;;6.23;;
6517;SDS011;3292;48.944;9.240;2023-12-20T07:08:03;6.87;;;6.27;;
6517;SDS011;3292;48.944;9.240;2023-12-20T07:10:30;7.13;;;6.43;;
6517;SDS011;3292;48.944;9.240;2023-12-20T07:12:57;7.10;;;6.50;;
6517;SDS011;3292;48.944;9.240;2023-12-20T07:15:25;7.67;;;7.00;;
6517;SDS011;3292;48.944;9.240;2023-12-20T07:17:51;8.00;;;7.30;;
6517;SDS011;3292;48.944;9.240;2023-12-20T07:20:19;8.00;;;7.30;;
6517;SDS011;3292;48.944;9.240;2023-12-20T07:22:45;7.90;;;7.20;;
6517;SDS011;3292;48.944;9.240;2023-12-20T07:25:12;8.10;;;7.33;;
6517;SDS011;3292;48.944;9.240;2023-12-20T07:27:39;7.87;;;7.17;;
6517;SDS011;3292;48.944;9.240;2023-12-20T07:30:06;7.90;;;7.13;;
6517;SDS011;3292;48.944;9.240;2023-12-20T07:32:35;8.77;;;7.90;;
6517;SDS011;3292;48.944;9.240;2023-12-20T07:35:02;8.37;;;7.73;;
6517;SDS011;3292;48.944;9.240;2023-12-20T07:37:30;9.47;;;8.50;;
6517;SDS011;3292;48.944;9.240;2023-12-20T07:39:57;9.20;;;8.40;;
6517;SDS011;3292;48.944;9.240;2023-12-20T07:42:24;9.33;;;8.47;;
6517;SDS011;3292;48.944;9.240;2023-12-20T07:44:50;8.20;;;7.50;;
6517;SDS011;3292;48.944;9.240;2023-12-20T07:47:17;8.20;;;7.50;;
6517;SDS011;3292;48.944;9.240;2023-12-20T07:49:48;8.67;;;7.87;;
6517;SDS011;3292;48.944;9.240;2023-12-20T07:52:16;8.20;;;7.47;;
6517;SDS011;3292;48.944;9.240;2023-12-20T07:54:43;7.30;;;6.60;;
6517;SDS011;3292;48.944;9.240;2023-12-20T07:57:10;7.57;;;6.97;;
6517;SDS011;3292;48.944;9.240;2023-12-20T07:59:37;7.50;;;6.83;;
6517;SDS011;3292;48.944;9.240;2023-12-20T08:02:03;7.07;;;6.47;;
6517;SDS011;3292;48.944;9.240;2023-12-20T08:04:30;7.20;;;6.53;;
6517;SDS011;3292;48.944;9.240;2023-12-20T08:06:59;7.20;;;6.50;;
6517;SDS011;3292;48.944;9.240;2023-12-20T08:09:25;7.03;;;6.33;;
6517;SDS011;3292;48.944;9.240;2023-12-20T08:11:52;6.97;;;6.27;;
6517;SDS011;3292;48.944;9.240;2023-12-20T08:14:19;6.37;;;5.70;;
6517;SDS011;3292;48.944;9.240;2023-12-20T08:16:46;6.60;;;6.07;;
6517;SDS011;3292;48.944;9.240;2023-12-20T08:19:12;6.87;;;6.27;;
6517;SDS011;3292;48.944;9.240;2023-12-20T08:21:39;6.53;;;5.97;;
6517;SDS011;3292;48.944;9.240;2023-12-20T08:24:08;7.17;;;6.37;;
6517;SDS011;3292;48.944;9.240;2023-12-20T08:26:35;5.97;;;5.47;;
6517;SDS011;3292;48.944;9.240;2023-12-20T08:29:01;6.13;;;5.63;;
6517;SDS011;3292;48.944;9.240;2023-12-20T08:31:28;6.50;;;5.90;;
6517;SDS011;3292;48.944;9.240;2023-12-20T08:33:55;7.07;;;6.33;;
6517;SDS011;3292;48.944;9.240;2023-12-20T08:36:22;6.90;;;5.60;;
6517;SDS011;3292;48.944;9.240;2023-12-20T08:38:48;6.60;;;5.40;;
6517;SDS011;3292;48.944;9.240;2023-12-20T08:41:17;6.03;;;5.50;;
6517;SDS011;3292;48.944;9.240;2023-12-20T08:43:44;5.43;;;4.90;;
6517;SDS011;3292;48.944;9.240;2023-12-20T08:46:11;5.70;;;5.10;;
6517;SDS011;3292;48.944;9.240;2023-12-20T08:48:38;5.60;;;5.10;;
6517;SDS011;3292;48.944;9.240;2023-12-20T08:51:05;8.03;;;5.27;;
6517;SDS011;3292;48.944;9.240;2023-12-20T08:53:33;6.27;;;5.10;;
6517;SDS011;3292;48.944;9.240;2023-12-20T08:56:00;7.20;;;4.63;;
6517;SDS011;3292;48.944;9.240;2023-12-20T08:58:28;6.93;;;4.90;;
6517;SDS011;3292;48.944;9.240;2023-12-20T09:00:55;5.20;;;4.80;;
6517;SDS011;3292;48.944;9.240;2023-12-20T09:03:22;5.53;;;4.73;;
6517;SDS011;3292;48.944;9.240;2023-12-20T09:05:49;5.57;;;4.20;;
6517;SDS011;3292;48.944;9.240;2023-12-20T09:08:16;5.13;;;4.53;;
6517;SDS011;3292;48.944;9.240;2023-12-20T09:10:43;5.63;;;4.23;;
6517;SDS011;3292;48.944;9.240;2023-12-20T09:13:10;4.70;;;4.30;;
6517;SDS011;3292;48.944;9.240;2023-12-20T09:15:38;4.60;;;4.13;;
6517;SDS011;3292;48.944;9.240;2023-12-20T09:18:05;6.47;;;4.50;;
6517;SDS011;3292;48.944;9.240;2023-12-20T09:20:32;5.73;;;4.67;;
6517;SDS011;3292;48.944;9.240;2023-12-20T09:22:59;4.93;;;4.53;;
6517;SDS011;3292;48.944;9.240;2023-12-20T09:25:26;7.30;;;5.10;;
6517;SDS011;3292;48.944;9.240;2023-12-20T09:27:53;5.60;;;4.67;;
6517;SDS011;3292;48.944;9.240;2023-12-20T09:30:20;6.03;;;4.53;;
6517;SDS011;3292;48.944;9.240;2023-12-20T09:32:50;4.80;;;4.30;;
6517;SDS011;3292;48.944;9.240;2023-12-20T09:35:16;6.00;;;4.40;;
6517;SDS011;3292;48.944;9.240;2023-12-20T09:37:43;7.30;;;4.20;;
6517;SDS011;3292;48.944;9.240;2023-12-20T09:40:12;4.57;;;3.80;;
6517;SDS011;3292;48.944;9.240;2023-12-20T09:42:41;5.27;;;3.70;;
6517;SDS011;3292;48.944;9.240;2023-12-20T09:45:14;5.70;;;3.57;;
6517;SDS011;3292;48.944;9.240;2023-12-20T09:47:42;4.93;;;3.50;;
6517;SDS011;3292;48.944;9.240;2023-12-20T09:50:11;4.07;;;3.20;;
6517;SDS011;3292;48.944;9.240;2023-12-20T09:52:42;6.07;;;3.13;;
6517;SDS011;3292;48.944;9.240;2023-12-20T09:55:12;6.63;;;2.83;;
6517;SDS011;3292;48.944;9.240;2023-12-20T09:57:39;6.63;;;3.27;;
6517;SDS011;3292;48.944;9.240;2023-12-20T10:00:07;5.43;;;2.80;;
6517;SDS011;3292;48.944;9.240;2023-12-20T10:02:34;3.87;;;3.00;;
6517;SDS011;3292;48.944;9.240;2023-12-20T10:05:06;5.77;;;3.07;;
6517;SDS011;3292;48.944;9.240;2023-12-20T10:07:36;5.30;;;2.93;;
6517;SDS011;3292;48.944;9.240;2023-12-20T10:10:02;5.80;;;3.10;;
6517;SDS011;3292;48.944;9.240;2023-12-20T10:12:34;4.10;;;2.70;;
6517;SDS011;3292;48.944;9.240;2023-12-20T10:15:00;6.17;;;3.23;;
6517;SDS011;3292;48.944;9.240;2023-12-20T10:17:27;4.17;;;2.63;;
6517;SDS011;3292;48.944;9.240;2023-12-20T10:19:55;5.47;;;2.90;;
6517;SDS011;3292;48.944;9.240;2023-12-20T10:22:21;5.87;;;2.83;;
6517;SDS011;3292;48.944;9.240;2023-12-20T10:24:50;5.17;;;2.60;;
6517;SDS011;3292;48.944;9.240;2023-12-20T10:27:16;8.07;;;3.23;;
6517;SDS011;3292;48.944;9.240;2023-12-20T10:29:45;6.77;;;2.93;;
6517;SDS011;3292;48.944;9.240;2023-12-20T10:32:24;5.47;;;2.90;;
6517;SDS011;3292;48.944;9.240;2023-12-20T10:34:52;4.03;;;2.53;;
6517;SDS011;3292;48.944;9.240;2023-12-20T10:37:19;5.10;;;2.53;;
6517;SDS011;3292;48.944;9.240;2023-12-20T10:39:47;5.13;;;2.53;;
6517;SDS011;3292;48.944;9.240;2023-12-20T10:42:18;6.17;;;3.00;;
6517;SDS011;3292;48.944;9.240;2023-12-20T10:44:47;3.70;;;3.00;;
6517;SDS011;3292;48.944;9.240;2023-12-20T10:47:15;9.37;;;2.90;;
6517;SDS011;3292;48.944;9.240;2023-12-20T10:49:43;6.23;;;2.33;;
6517;SDS011;3292;48.944;9.240;2023-12-20T10:52:11;5.80;;;2.60;;
6517;SDS011;3292;48.944;9.240;2023-12-20T10:54:38;6.83;;;2.77;;
6517;SDS011;3292;48.944;9.240;2023-12-20T10:57:07;8.37;;;2.80;;
6517;SDS011;3292;48.944;9.240;2023-12-20T10:59:35;8.43;;;2.60;;
6517;SDS011;3292;48.944;9.240;2023-12-20T11:02:04;8.13;;;2.93;;
6517;SDS011;3292;48.944;9.240;2023-12-20T11:04:35;6.50;;;2.50;;
6517;SDS011;3292;48.944;9.240;2023-12-20T11:07:08;5.53;;;2.20;;
6517;SDS011;3292;48.944;9.240;2023-12-20T11:09:47;4.43;;;2.47;;
6517;SDS011;3292;48.944;9.240;2023-12-20T11:12:28;6.27;;;2.37;;
6517;SDS011;3292;48.944;9.240;2023-12-20T11:15:02;5.70;;;2.77;;
6517;SDS011;3292;48.944;9.240;2023-12-20T11:17:29;5.80;;;2.10;;
6517;SDS011;3292;48.944;9.240;2023-12-20T11:20:04;6.10;;;2.30;;
6517;SDS011;3292;48.944;9.240;2023-12-20T11:22:35;4.67;;;2.57;;
6517;SDS011;3292;48.944;9.240;2023-12-20T11:25:03;3.07;;;2.20;;
6517;SDS011;3292;48.944;9.240;2023-12-20T11:27:34;6.43;;;2.33;;
6517;SDS011;3292;48.944;9.240;2023-12-20T11:30:02;5.07;;;2.30;;
6517;SDS011;3292;48.944;9.240;2023-12-20T11:32:32;5.07;;;2.47;;
6517;SDS011;3292;48.944;9.240;2023-12-20T11:35:16;3.83;;;2.50;;
6517;SDS011;3292;48.944;9.240;2023-12-20T11:37:45;5.67;;;2.33;;
6517;SDS011;3292;48.944;9.240;2023-12-20T11:40:14;4.53;;;2.47;;
6517;SDS011;3292;48.944;9.240;2023-12-20T11:42:44;3.73;;;2.67;;
6517;SDS011;3292;48.944;9.240;2023-12-20T11:45:13;2.40;;;2.13;;
6517;SDS011;3292;48.944;9.240;2023-12-20T11:47:42;3.87;;;2.57;;
6517;SDS011;3292;48.944;9.240;2023-12-20T11:50:09;3.13;;;2.33;;
6517;SDS011;3292;48.944;9.240;2023-12-20T11:52:36;5.50;;;2.83;;
6517;SDS011;3292;48.944;9.240;2023-12-20T11:55:03;7.13;;;3.37;;
6517;SDS011;3292;48.944;9.240;2023-12-20T11:57:30;5.33;;;3.47;;
6517;SDS011;3292;48.944;9.240;2023-12-20T11:59:59;6.17;;;3.07;;
6517;SDS011;3292;48.944;9.240;2023-12-20T12:02:26;5.53;;;2.77;;
6517;SDS011;3292;48.944;9.240;2023-12-20T12:04:53;5.40;;;2.90;;
6517;SDS011;3292;48.944;9.240;2023-12-20T12:07:23;5.57;;;2.83;;
6517;SDS011;3292;48.944;9.240;2023-12-20T12:09:50;4.97;;;2.80;;
6517;SDS011;3292;48.944;9.240;2023-12-20T12:12:17;5.90;;;3.00;;
6517;SDS011;3292;48.944;9.240;2023-12-20T12:14:45;5.90;;;2.90;;
6517;SDS011;3292;48.944;9.240;2023-12-20T12:17:13;4.93;;;2.70;;
6517;SDS011;3292;48.944;9.240;2023-12-20T12:19:40;4.67;;;2.67;;
6517;SDS011;3292;48.944;9.240;2023-12-20T12:22:08;4.77;;;3.20;;
6517;SDS011;3292;48.944;9.240;2023-12-20T12:24:38;7.60;;;3.00;;
6517;SDS011;3292;48.944;9.240;2023-12-20T12:27:09;8.87;;;3.80;;
6517;SDS011;3292;48.944;9.240;2023-12-20T12:29:37;8.13;;;3.80;;
6517;SDS011;3292;48.944;9.240;2023-12-20T12:32:04;4.83;;;3.00;;
6517;SDS011;3292;48.944;9.240;2023-12-20T12:34:33;7.43;;;3.20;;
6517;SDS011;3292;48.944;9.240;2023-12-20T12:37:00;5.20;;;3.27;;
6517;SDS011;3292;48.944;9.240;2023-12-20T12:39:27;3.07;;;2.53;;
6517;SDS011;3292;48.944;9.240;2023-12-20T12:41:55;6.93;;;2.80;;
6517;SDS011;3292;48.944;9.240;2023-12-20T12:44:22;5.40;;;3.03;;
6517;SDS011;3292;48.944;9.240;2023-12-20T12:46:50;5.40;;;2.57;;
6517;SDS011;3292;48.944;9.240;2023-12-20T12:49:18;5.17;;;2.53;;
6517;SDS011;3292;48.944;9.240;2023-12-20T12:51:47;5.30;;;2.80;;
6517;SDS011;3292;48.944;9.240;2023-12-20T12:54:14;6.00;;;2.83;;
6517;SDS011;3292;48.944;9.240;2023-12-20T12:56:43;4.23;;;2.50;;
6517;SDS011;3292;48.944;9.240;2023-12-20T12:59:10;6.50;;;2.70;;
6517;SDS011;3292;48.944;9.240;2023-12-20T13:01:36;4.53;;;2.83;;
6517;SDS011;3292;48.944;9.240;2023-12-20T13:04:03;4.87;;;2.57;;
6517;SDS011;3292;48.944;9.240;2023-12-20T13:06:35;7.07;;;3.50;;
6517;SDS011;3292;48.944;9.240;2023-12-20T13:09:04;5.77;;;3.07;;
6517;SDS011;3292;48.944;9.240;2023-12-20T13:11:30;4.57;;;2.63;;
6517;SDS011;3292;48.944;9.240;2023-12-20T13:13:57;4.87;;;2.70;;
6517;SDS011;3292;48.944;9.240;2023-12-20T13:16:24;6.43;;;2.40;;
6517;SDS011;3292;48.944;9.240;2023-12-20T13:18:51;4.83;;;2.93;;
6517;SDS011;3292;48.944;9.240;2023-12-20T13:21:18;4.73;;;2.53;;
6517;SDS011;3292;48.944;9.240;2023-12-20T13:23:44;6.17;;;2.50;;
6517;SDS011;3292;48.944;9.240;2023-12-20T13:26:13;7.00;;;3.17;;
6517;SDS011;3292;48.944;9.240;2023-12-20T13:28:40;7.47;;;2.70;;
6517;SDS011;3292;48.944;9.240;2023-12-20T13:31:07;7.20;;;2.63;;
6517;SDS011;3292;48.944;9.240;2023-12-20T13:33:34;6.17;;;2.80;;
6517;SDS011;3292;48.944;9.240;2023-12-20T13:36:01;4.83;;;2.63;;
6517;SDS011;3292;48.944;9.240;2023-12-20T13:38:28;5.97;;;2.87;;
6517;SDS011;3292;48.944;9.240;2023-12-20T13:40:54;6.63;;;3.00;;
6517;SDS011;3292;48.944;9.240;2023-12-20T13:43:24;6.77;;;2.77;;
6517;SDS011;3292;48.944;9.240;2023-12-20T13:45:51;5.00;;;2.70;;
6517;SDS011;3292;48.944;9.240;2023-12-20T13:48:18;3.90;;;2.70;;
6517;SDS011;3292;48.944;9.240;2023-12-20T13:50:45;7.17;;;2.47;;
6517;SDS011;3292;48.944;9.240;2023-12-20T13:53:11;6.87;;;2.50;;
6517;SDS011;3292;48.944;9.240;2023-12-20T13:55:39;5.47;;;2.60;;
6517;SDS011;3292;48.944;9.240;2023-12-20T13:58:05;4.77;;;2.60;;
6517;SDS011;3292;48.944;9.240;2023-12-20T14:00:34;4.33;;;2.73;;
6517;SDS011;3292;48.944;9.240;2023-12-20T14:03:01;4.70;;;2.87;;
6517;SDS011;3292;48.944;9.240;2023-12-20T14:05:29;7.53;;;3.43;;
6517;SDS011;3292;48.944;9.240;2023-12-20T14:07:55;8.60;;;2.63;;
6517;SDS011;3292;48.944;9.240;2023-12-20T14:10:23;5.03;;;2.77;;
6517;SDS011;3292;48.944;9.240;2023-12-20T14:12:51;4.33;;;2.53;;
6517;SDS011;3292;48.944;9.240;2023-12-20T14:15:18;5.47;;;3.17;;
6517;SDS011;3292;48.944;9.240;2023-12-20T14:17:46;7.17;;;3.00;;
6517;SDS011;3292;48.944;9.240;2023-12-20T14:20:13;4.80;;;3.20;;
6517;SDS011;3292;48.944;9.240;2023-12-20T14:22:40;4.77;;;2.97;;
6517;SDS011;3292;48.944;9.240;2023-12-20T14:25:10;5.30;;;3.10;;
6517;SDS011;3292;48.944;9.240;2023-12-20T14:27:37;4.73;;;3.07;;
6517;SDS011;3292;48.944;9.240;2023-12-20T14:30:06;7.97;;;2.90;;
6517;SDS011;3292;48.944;9.240;2023-12-20T14:32:34;9.27;;;3.20;;
6517;SDS011;3292;48.944;9.240;2023-12-20T14:35:04;6.57;;;3.13;;
6517;SDS011;3292;48.944;9.240;2023-12-20T14:37:33;6.10;;;3.00;;
6517;SDS011;3292;48.944;9.240;2023-12-20T14:40:00;5.57;;;3.40;;
6517;SDS011;3292;48.944;9.240;2023-12-20T14:42:27;6.53;;;3.33;;
6517;SDS011;3292;48.944;9.240;2023-12-20T14:44:54;5.53;;;3.03;;
6517;SDS011;3292;48.944;9.240;2023-12-20T14:47:21;7.57;;;3.10;;
6517;SDS011;3292;48.944;9.240;2023-12-20T14:49:50;7.77;;;3.20;;
6517;SDS011;3292;48.944;9.240;2023-12-20T14:52:18;9.93;;;3.73;;
6517;SDS011;3292;48.944;9.240;2023-12-20T14:54:45;8.07;;;3.13;;
6517;SDS011;3292;48.944;9.240;2023-12-20T14:57:12;5.00;;;3.23;;
6517;SDS011;3292;48.944;9.240;2023-12-20T14:59:38;7.43;;;3.57;;
6517;SDS011;3292;48.944;9.240;2023-12-20T15:02:05;6.13;;;3.63;;
6517;SDS011;3292;48.944;9.240;2023-12-20T15:04:32;4.47;;;3.37;;
6517;SDS011;3292;48.944;9.240;2023-12-20T15:06:59;7.17;;;3.43;;
6517;SDS011;3292;48.944;9.240;2023-12-20T15:09:31;8.40;;;4.40;;
6517;SDS011;3292;48.944;9.240;2023-12-20T15:11:58;7.50;;;4.10;;
6517;SDS011;3292;48.944;9.240;2023-12-20T15:14:25;8.47;;;3.20;;